createdAt,value
2022-12-03T00:03:53.652Z,5.85
2022-12-03T00:07:55.553Z,5.10
2022-12-03T00:11:57.316Z,5.63
2022-12-03T00:15:58.994Z,5.03
2022-12-03T00:20:00.655Z,4.82
2022-12-03T00:24:02.334Z,5.13
2022-12-03T00:28:04.163Z,4.90
2022-12-03T00:32:05.986Z,5.15
2022-12-03T00:36:08.036Z,5.25
2022-12-03T00:40:11.785Z,5.10
2022-12-03T00:44:13.409Z,5.20
2022-12-03T00:48:15.109Z,5.60
2022-12-03T00:52:16.947Z,5.53
2022-12-03T00:56:18.607Z,5.47
2022-12-03T01:00:24.541Z,4.93
2022-12-03T01:04:26.286Z,5.28
2022-12-03T01:08:28.022Z,4.82
2022-12-03T01:12:29.675Z,5.22
2022-12-03T01:16:31.506Z,5.00
2022-12-03T01:20:33.299Z,5.43
2022-12-03T01:24:34.920Z,5.22
2022-12-03T01:28:36.573Z,5.40
2022-12-03T01:32:38.423Z,4.93
2022-12-03T01:36:40.727Z,5.85
2022-12-03T01:40:42.523Z,5.78
2022-12-03T01:44:45.369Z,5.68
2022-12-03T01:48:49.052Z,5.13
2022-12-03T01:52:50.975Z,5.13
2022-12-03T01:56:53.225Z,5.70
2022-12-03T02:00:54.887Z,5.53
2022-12-03T02:04:57.664Z,5.53
2022-12-03T02:08:59.529Z,5.18
2022-12-03T02:13:07.842Z,5.53
2022-12-03T02:17:09.620Z,5.60
2022-12-03T02:21:40.690Z,5.30
2022-12-03T02:25:42.393Z,4.68
2022-12-03T02:29:44.192Z,5.28
2022-12-03T02:33:45.832Z,6.00
2022-12-03T02:37:50.515Z,5.55
2022-12-03T02:42:10.998Z,5.15
2022-12-03T02:46:12.650Z,5.50
2022-12-03T02:50:17.473Z,5.93
2022-12-03T02:54:19.426Z,4.82
2022-12-03T02:58:22.461Z,5.90
2022-12-03T03:02:24.261Z,5.85
2022-12-03T03:06:26.234Z,6.05
2022-12-03T03:10:29.112Z,5.60
2022-12-03T03:14:32.622Z,5.50
2022-12-03T03:18:34.972Z,5.72
2022-12-03T03:22:40.368Z,5.43
2022-12-03T03:26:42.115Z,5.53
2022-12-03T03:30:44.276Z,5.95
2022-12-03T03:34:46.434Z,5.45
2022-12-03T03:38:48.403Z,5.93
2022-12-03T03:42:50.274Z,5.80
2022-12-03T03:46:51.873Z,5.75
2022-12-03T03:50:54.048Z,5.97
2022-12-03T03:54:55.884Z,5.63
2022-12-03T03:58:57.982Z,6.20
2022-12-03T04:02:59.581Z,6.30
2022-12-03T04:07:01.247Z,6.30
2022-12-03T04:11:21.410Z,6.10
2022-12-03T04:15:23.845Z,5.63
2022-12-03T04:19:25.516Z,6.05
2022-12-03T04:23:30.928Z,6.30
2022-12-03T04:27:51.366Z,5.68
2022-12-03T04:32:11.781Z,5.80
2022-12-03T04:36:13.420Z,5.82
2022-12-03T04:40:33.769Z,5.82
2022-12-03T04:44:38.508Z,6.55
2022-12-03T04:48:40.111Z,6.53
2022-12-03T04:52:41.711Z,6.15
2022-12-03T04:56:43.615Z,6.28
2022-12-03T05:00:45.237Z,6.18
2022-12-03T05:04:47.020Z,5.82
2022-12-03T05:08:48.779Z,6.22
2022-12-03T05:12:50.392Z,6.25
2022-12-03T05:16:52.092Z,5.93
2022-12-03T05:20:53.929Z,5.95
2022-12-03T05:24:55.875Z,6.55
2022-12-03T05:28:57.924Z,6.53
2022-12-03T05:32:59.572Z,6.07
2022-12-03T05:37:01.276Z,6.82
2022-12-03T05:41:23.482Z,5.82
2022-12-03T05:45:27.365Z,6.78
2022-12-03T05:49:29.019Z,7.45
2022-12-03T05:53:31.057Z,5.80
2022-12-03T05:57:32.683Z,6.72
2022-12-03T06:01:34.497Z,6.05
2022-12-03T06:05:36.138Z,6.15
2022-12-03T06:09:37.863Z,6.57
2022-12-03T06:13:39.496Z,6.28
2022-12-03T06:17:41.327Z,6.75
2022-12-03T06:21:42.930Z,5.82
2022-12-03T06:25:44.539Z,7.00
2022-12-03T06:29:46.263Z,6.07
2022-12-03T06:33:48.076Z,5.65
2022-12-03T06:37:49.687Z,6.55
2022-12-03T06:41:51.316Z,5.85
2022-12-03T06:45:52.948Z,6.32
2022-12-03T06:49:54.557Z,6.25
2022-12-03T06:53:56.540Z,6.07
2022-12-03T06:57:58.400Z,6.10
2022-12-03T07:02:00.905Z,6.28
2022-12-03T07:06:02.591Z,6.22
2022-12-03T07:10:04.724Z,6.35
2022-12-03T07:14:07.893Z,6.30
2022-12-03T07:18:10.251Z,6.35
2022-12-03T07:22:12.229Z,6.13
2022-12-03T07:26:13.976Z,6.13
2022-12-03T07:30:17.817Z,6.72
2022-12-03T07:34:19.456Z,6.78
2022-12-03T07:38:21.095Z,6.18
2022-12-03T07:42:22.704Z,6.70
2022-12-03T07:46:24.472Z,5.65
2022-12-03T07:50:28.192Z,6.38
2022-12-03T07:54:29.826Z,6.10
2022-12-03T07:58:31.721Z,6.65
2022-12-03T08:02:33.395Z,5.70
2022-12-03T08:06:35.234Z,6.63
2022-12-03T08:10:36.874Z,6.25
2022-12-03T08:14:38.562Z,6.38
2022-12-03T08:18:40.188Z,6.53
2022-12-03T08:22:43.607Z,6.30
2022-12-03T08:26:47.244Z,6.63
2022-12-03T08:31:09.122Z,6.40
2022-12-03T08:35:30.359Z,6.30
2022-12-03T08:39:34.545Z,5.97
2022-12-03T08:43:41.957Z,6.03
2022-12-03T08:47:43.625Z,6.53
2022-12-03T08:51:45.403Z,6.65
2022-12-03T08:55:52.918Z,6.43
2022-12-03T08:59:59.963Z,6.25
2022-12-03T09:04:18.941Z,6.18
2022-12-03T09:08:20.905Z,7.05
2022-12-03T09:12:37.617Z,6.57
2022-12-03T09:16:39.688Z,6.47
2022-12-03T09:20:41.473Z,5.55
2022-12-03T09:24:43.310Z,6.10
2022-12-03T09:28:46.223Z,6.72
2022-12-03T09:32:47.832Z,5.47
2022-12-03T09:36:49.461Z,6.18
2022-12-03T09:40:51.268Z,6.22
2022-12-03T09:44:53.839Z,6.45
2022-12-03T09:48:55.863Z,6.05
2022-12-03T09:53:00.285Z,5.63
2022-12-03T09:57:04.147Z,5.88
2022-12-03T10:01:13.631Z,6.20
2022-12-03T10:05:15.741Z,6.57
2022-12-03T10:09:24.332Z,6.38
2022-12-03T10:13:29.977Z,5.80
2022-12-03T10:17:32.292Z,5.75
2022-12-03T10:21:38.757Z,5.95
2022-12-03T10:25:55.075Z,6.32
2022-12-03T10:29:59.302Z,5.63
2022-12-03T10:34:00.930Z,5.80
2022-12-03T10:38:22.523Z,6.78
2022-12-03T10:42:27.152Z,6.38
2022-12-03T10:46:29.034Z,5.13
2022-12-03T10:50:31.445Z,6.22
2022-12-03T10:54:35.355Z,5.75
2022-12-03T10:58:39.246Z,5.78
2022-12-03T11:02:41.042Z,6.50
2022-12-03T11:06:42.671Z,6.00
2022-12-03T11:10:44.391Z,6.28
2022-12-03T11:14:53.248Z,5.80
2022-12-03T11:18:55.051Z,5.63
2022-12-03T11:22:57.947Z,6.25
2022-12-03T11:27:00.154Z,5.82
2022-12-03T11:31:09.610Z,6.53
2022-12-03T11:35:13.753Z,6.13
2022-12-03T11:39:50.556Z,5.63
2022-12-03T11:43:52.239Z,6.28
2022-12-03T11:47:59.934Z,6.25
2022-12-03T11:52:11.719Z,5.88
2022-12-03T11:56:31.542Z,6.25
2022-12-03T12:00:33.162Z,6.13
2022-12-03T12:04:37.902Z,5.85
2022-12-03T12:08:51.955Z,6.60
2022-12-03T12:12:55.277Z,6.28
2022-12-03T12:16:58.379Z,5.85
2022-12-03T12:21:37.682Z,5.93
2022-12-03T12:25:40.818Z,7.28
2022-12-03T12:29:44.053Z,5.78
2022-12-03T12:33:45.670Z,6.32
2022-12-03T12:37:58.953Z,5.80
2022-12-03T12:42:01.460Z,6.05
2022-12-03T12:46:46.031Z,5.88
2022-12-03T12:50:39.069Z,6.95
2022-12-03T12:54:41.097Z,6.63
2022-12-03T12:58:43.021Z,7.03
2022-12-03T13:02:56.763Z,6.65
2022-12-03T13:06:59.815Z,6.15
2022-12-03T13:11:02.131Z,6.40
2022-12-03T13:15:27.159Z,6.65
2022-12-03T13:19:39.576Z,7.15
2022-12-03T13:23:51.695Z,5.90
2022-12-03T13:27:53.311Z,6.07
2022-12-03T13:32:09.280Z,5.80
2022-12-03T13:36:14.830Z,5.82
2022-12-03T13:40:30.488Z,6.00
2022-12-03T13:44:33.307Z,6.60
2022-12-03T13:48:36.189Z,5.28
2022-12-03T13:52:37.899Z,6.13
2022-12-03T13:56:39.485Z,6.32
2022-12-03T14:00:41.165Z,6.47
2022-12-03T14:04:42.976Z,6.18
2022-12-03T14:08:44.907Z,6.93
2022-12-03T14:12:46.542Z,6.38
2022-12-03T14:16:48.491Z,5.97
2022-12-03T14:20:50.573Z,6.32
2022-12-03T14:24:53.437Z,6.10
2022-12-03T14:28:55.038Z,6.15
2022-12-03T14:32:56.735Z,6.10
2022-12-03T14:36:58.367Z,6.72
2022-12-03T14:40:59.951Z,6.03
2022-12-03T14:45:01.570Z,5.45
2022-12-03T14:49:03.189Z,5.72
2022-12-03T14:53:04.850Z,6.15
2022-12-03T14:57:06.605Z,6.22
2022-12-03T15:01:08.454Z,5.97
2022-12-03T15:05:10.375Z,6.10
2022-12-03T15:09:12.134Z,6.25
2022-12-03T15:13:13.810Z,6.05
2022-12-03T15:17:15.954Z,6.30
2022-12-03T15:21:17.710Z,6.47
2022-12-03T15:25:24.319Z,5.97
2022-12-03T15:29:26.132Z,6.50
2022-12-03T15:33:28.032Z,6.85
2022-12-03T15:37:29.641Z,5.90
2022-12-03T15:41:31.543Z,6.40
2022-12-03T15:45:33.467Z,6.47
2022-12-03T15:49:35.443Z,6.30
2022-12-03T15:53:37.958Z,5.63
2022-12-03T15:57:39.935Z,6.93
2022-12-03T16:01:41.865Z,6.90
2022-12-03T16:05:43.720Z,6.10
2022-12-03T16:09:46.054Z,6.35
2022-12-03T16:13:47.967Z,6.07
2022-12-03T16:17:49.842Z,6.80
2022-12-03T16:21:52.008Z,7.32
2022-12-03T16:25:53.825Z,5.90
2022-12-03T16:29:57.061Z,7.03
2022-12-03T16:33:59.243Z,6.32
2022-12-03T16:38:01.190Z,5.85
2022-12-03T16:42:05.775Z,7.00
2022-12-03T16:46:18.640Z,6.50
2022-12-03T16:50:28.865Z,6.65
2022-12-03T16:54:31.714Z,6.32
2022-12-03T16:58:33.379Z,6.78
2022-12-03T17:02:35.274Z,6.45
2022-12-03T17:06:37.012Z,6.28
2022-12-03T17:10:39.333Z,7.05
2022-12-03T17:14:41.080Z,6.78
2022-12-03T17:18:42.882Z,6.95
2022-12-03T17:22:44.716Z,6.38
2022-12-03T17:26:46.451Z,6.50
2022-12-03T17:30:48.400Z,6.63
2022-12-03T17:34:50.049Z,6.80
2022-12-03T17:38:51.930Z,6.60
2022-12-03T17:42:53.527Z,6.18
2022-12-03T17:46:55.233Z,7.00
2022-12-03T17:50:58.039Z,7.13
2022-12-03T17:55:11.741Z,6.43
2022-12-03T17:59:14.840Z,6.88
2022-12-03T18:03:16.449Z,6.88
2022-12-03T18:07:18.084Z,6.85
2022-12-03T18:11:20.080Z,6.35
2022-12-03T18:15:21.728Z,7.53
2022-12-03T18:19:23.460Z,6.55
2022-12-03T18:23:25.122Z,6.75
2022-12-03T18:27:26.727Z,6.72
2022-12-03T18:31:28.567Z,7.75
2022-12-03T18:35:30.357Z,7.07
2022-12-03T18:39:37.079Z,7.32
2022-12-03T18:43:41.939Z,6.72
2022-12-03T18:47:44.107Z,8.02
2022-12-03T18:51:45.828Z,6.65
2022-12-03T18:55:47.756Z,7.45
2022-12-03T18:59:49.375Z,6.63
2022-12-03T19:03:53.042Z,6.97
2022-12-03T19:07:57.570Z,7.32
2022-12-03T19:11:59.269Z,6.68
2022-12-03T19:16:05.273Z,6.97
2022-12-03T19:20:09.290Z,6.57
2022-12-03T19:24:26.264Z,7.38
2022-12-03T19:28:29.169Z,7.30
2022-12-03T19:32:30.874Z,7.57
2022-12-03T19:36:32.720Z,7.28
2022-12-03T19:40:34.323Z,7.07
2022-12-03T19:44:35.975Z,6.65
2022-12-03T19:48:39.370Z,7.32
2022-12-03T19:52:40.963Z,7.65
2022-12-03T19:56:43.018Z,6.78
2022-12-03T20:00:44.653Z,7.10
2022-12-03T20:04:46.258Z,6.10
2022-12-03T20:08:47.999Z,6.68
2022-12-03T20:12:49.621Z,7.13
2022-12-03T20:16:51.347Z,8.00
2022-12-03T20:20:57.678Z,6.97
2022-12-03T20:24:59.307Z,7.18
2022-12-03T20:29:01.232Z,7.50
2022-12-03T20:33:02.855Z,7.80
2022-12-03T20:37:04.531Z,7.40
2022-12-03T20:41:09.437Z,6.88
2022-12-03T20:45:11.245Z,6.65
2022-12-03T20:49:12.916Z,6.57
2022-12-03T20:53:24.651Z,6.93
2022-12-03T20:57:26.939Z,7.13
2022-12-03T21:01:28.934Z,6.95
2022-12-03T21:05:30.683Z,7.32
2022-12-03T21:09:32.321Z,7.20
2022-12-03T21:13:33.914Z,6.80
2022-12-03T21:17:35.573Z,7.30
2022-12-03T21:21:37.319Z,6.90
2022-12-03T21:25:39.262Z,7.78
2022-12-03T21:29:40.854Z,7.05
2022-12-03T21:33:43.011Z,7.28
2022-12-03T21:37:44.725Z,6.93
2022-12-03T21:42:18.929Z,7.57
2022-12-03T21:47:12.280Z,7.53
2022-12-03T21:50:31.073Z,7.03
2022-12-03T21:54:32.789Z,6.40
2022-12-03T21:58:34.829Z,7.22
2022-12-03T22:02:38.883Z,7.40
2022-12-03T22:06:40.547Z,7.25
2022-12-03T22:10:42.280Z,7.43
2022-12-03T22:14:43.980Z,7.35
2022-12-03T22:18:45.879Z,6.97
2022-12-03T22:22:47.483Z,7.25
2022-12-03T22:26:49.119Z,6.90
2022-12-03T22:30:50.830Z,7.13
2022-12-03T22:34:52.572Z,7.03
2022-12-03T22:38:54.262Z,6.88
2022-12-03T22:42:55.887Z,7.85
2022-12-03T22:46:57.520Z,7.55
2022-12-03T22:50:59.135Z,7.80
2022-12-03T22:55:00.790Z,7.13
2022-12-03T22:59:02.776Z,7.75
2022-12-03T23:03:05.141Z,7.00
2022-12-03T23:07:08.226Z,7.15
2022-12-03T23:11:10.120Z,7.82
2022-12-03T23:15:11.873Z,7.63
2022-12-03T23:19:14.614Z,7.38
2022-12-03T23:23:17.264Z,6.88
2022-12-03T23:27:18.891Z,7.43
2022-12-03T23:31:29.469Z,7.40
2022-12-03T23:35:31.876Z,7.40
2022-12-03T23:39:33.469Z,7.78
2022-12-03T23:43:35.414Z,7.75
2022-12-03T23:47:37.087Z,7.30
2022-12-03T23:51:38.716Z,7.78
2022-12-03T23:55:40.741Z,7.40
2022-12-03T23:59:42.404Z,7.72
